Hillsboro, ND

4:04 PM CST on December 21, 2014 (GMT -0600)
Climax | Change Station
CLOSE
Current Station
Personal Weather Station
Location: Climax, MN
Elevation: 853 ft
Nearby Weather Stations
Active Advisory: Special Statement

Elev 853 ft 47.61 °N, 96.81 °W | Updated 17 minutes ago

Overcast
Overcast
32.2 °F
Feels Like 23 °F
N
12.0
Wind Variable Wind from SSE
Gusts 17.0 mph

Today
High -- | Low -- °F
--% Chance of Precip.
Yesterday
High -- | Low -- °F
Precip. -- in
8:12 AM 4:40 PM
Waning Crescent, 0% visible
Pressure 29.62 in
Visibility 6.0 miles
Clouds Overcast 700 ft
Windchill 23 °F
Dew Point 30 °F
Humidity 94%
Rainfall 0.00 in
Snow Depth Not available.
UV 0 out of 12
Pollen .10 out of 12
Air Quality Not available.
Flu Activity Not available.
METAR KFAR 212153Z 14011KT 6SM BR OVC007 01/M01 A2959 RMK AO2 SLP031 T00111006

More Conditions Fewer Conditions

Pressure 29.62 in
Visibility 6.0 miles
Clouds Overcast 700 ft
Windchill 23 °F
Dew Point 30 °F
Humidity 94%
Rainfall 0.00 in
Snow Depth Not available.
UV 0 out of 12
Pollen .10 out of 12
Air Quality Not available.
Flu Activity Not available.
METAR KFAR 212153Z 14011KT 6SM BR OVC007 01/M01 A2959 RMK AO2 SLP031 T00111006

More Conditions Fewer Conditions

10-Day Weather Forecast

Almanac

Astronomy

Dec. 21, 2014 Rise Set
Actual Time
Civil Twilight
Nautical Twilight
Astronomical Twilight
Moon
Length of Visible Light
Length of Day
Tomorrow will be .
, % of the Moon is Illuminated

Today's Extremes

State Highs State Lows

Community

WunderPhotos

Upload Photos

1,779,494 photos uploaded!

WunderBlogs® & News

Nearby

Air Quality

  Air Quality AQ Index Pollutant
Not available.

Snow Depth

Station Depth Elevation

Earthquake Activity

City Distance Mag. Time & Date
Minimum magnitude displayed is 2.5.

Coastal Water Temperatures

Place Temperature

Nearby Weather Stations